Time;durP1;ratioP1;P1;durP2;ratioP2;P2;SDS_P1;SDS_P2;PMS_P1;PMS_P2;Temp;Humidity;BMP_temperature;BMP_pressure;BME280_temperature;BME280_humidity;BME280_pressure;Samples;Min_cycle;Max_cycle;Signal;HPM_P1;HPM_P2
2022/12/22 03:25:54;;;;;;;1.10;0.80;;;;;;;10.19;100.00;99841.47;5026003;28;20528;-67
2022/12/22 03:28:25;;;;;;;3.30;0.75;;;;;;;10.18;100.00;99829.41;5032726;28;20124;-66
2022/12/22 03:31:02;;;;;;;2.72;0.80;;;;;;;10.17;100.00;99831.19;5025568;28;20096;-66
2022/12/22 03:33:28;;;;;;;2.20;0.75;;;;;;;10.15;100.00;99825.19;5023752;28;20043;-67
2022/12/22 03:35:54;;;;;;;1.00;0.70;;;;;;;10.15;100.00;99811.41;5028531;28;20033;-67
2022/12/22 03:38:20;;;;;;;3.03;0.70;;;;;;;10.13;100.00;99818.34;5026466;28;20087;-68
2022/12/22 03:40:45;;;;;;;0.82;0.80;;;;;;;10.10;100.00;99814.09;5034164;28;20029;-67
2022/12/22 03:48:43;;;;;;;1.25;0.85;;;;;;;10.06;100.00;99806.47;5021416;28;20489;-67
2022/12/22 03:51:10;;;;;;;1.65;0.90;;;;;;;10.05;100.00;99803.03;5021769;28;20140;-67
2022/12/22 03:53:35;;;;;;;1.75;0.90;;;;;;;10.04;100.00;99798.75;5019148;28;20033;-66
2022/12/22 03:56:01;;;;;;;4.13;1.20;;;;;;;10.03;100.00;99789.28;5022853;28;20040;-67
2022/12/22 03:58:27;;;;;;;1.80;0.95;;;;;;;10.05;100.00;99789.28;5022880;28;20034;-67
2022/12/22 04:01:04;;;;;;;4.88;1.10;;;;;;;10.04;100.00;99785.84;5021788;28;20068;-66
2022/12/22 04:03:29;;;;;;;1.30;0.90;;;;;;;10.05;100.00;99787.53;5028976;28;20513;-67
2022/12/22 04:05:55;;;;;;;3.08;1.00;;;;;;;10.05;100.00;99782.38;5029158;28;20038;-66
2022/12/22 04:08:20;;;;;;;0.90;0.70;;;;;;;10.03;100.00;99783.31;5025236;28;20129;-66
2022/12/22 04:13:29;;;;;;;3.03;2.05;;;;;;;10.02;100.00;99771.28;5022954;28;20051;-67
2022/12/22 04:15:55;;;;;;;4.30;2.00;;;;;;;9.98;100.00;99767.91;5027599;28;20477;-66
2022/12/22 04:18:20;;;;;;;4.03;2.08;;;;;;;9.97;100.00;99765.38;5027863;28;20034;-66
2022/12/22 04:20:47;;;;;;;3.45;2.05;;;;;;;9.93;100.00;99756.84;5024249;28;20091;-66
2022/12/22 04:23:13;;;;;;;4.20;2.15;;;;;;;9.91;100.00;99755.19;5024183;28;20105;-66
2022/12/22 04:25:38;;;;;;;4.22;2.35;;;;;;;9.89;100.00;99752.59;5025998;28;20033;-66
2022/12/22 04:28:04;;;;;;;2.83;1.80;;;;;;;9.85;100.00;99742.41;5023740;28;20144;-67
2022/12/22 04:30:29;;;;;;;4.50;2.10;;;;;;;9.83;100.00;99737.25;5024477;28;20055;-66
2022/12/22 04:32:54;;;;;;;4.05;1.90;;;;;;;9.80;100.00;99724.41;5026962;28;20048;-66
2022/12/22 04:35:20;;;;;;;3.47;1.95;;;;;;;9.76;100.00;99725.38;5024461;28;20033;-66
2022/12/22 04:37:45;;;;;;;2.60;1.73;;;;;;;9.74;100.00;99714.22;5024821;28;20119;-67
2022/12/22 04:40:11;;;;;;;4.72;1.90;;;;;;;9.74;100.00;99724.56;5021895;28;20107;-67
2022/12/22 04:42:36;;;;;;;5.00;1.90;;;;;;;9.71;100.00;99706.56;5019709;28;20044;-67
2022/12/22 04:45:02;;;;;;;4.03;2.00;;;;;;;9.71;100.00;99711.72;5025599;28;20787;-67
2022/12/22 04:47:27;;;;;;;3.42;1.80;;;;;;;9.71;100.00;99708.28;5025274;28;20072;-67
2022/12/22 04:49:54;;;;;;;7.35;3.67;;;;;;;9.69;100.00;99705.75;5027203;28;20046;-67
2022/12/22 04:52:20;;;;;;;11.95;5.35;;;;;;;9.71;100.00;99688.50;5021600;28;20746;-67
2022/12/22 04:54:45;;;;;;;5.03;4.15;;;;;;;9.73;100.00;99693.63;5021895;28;20047;-68
2022/12/22 04:57:10;;;;;;;4.90;3.30;;;;;;;9.74;100.00;99687.56;5017400;28;20067;-68
2022/12/22 04:59:36;;;;;;;3.67;2.50;;;;;;;9.76;100.00;99688.41;5020103;28;20025;-68
2022/12/22 05:02:01;;;;;;;4.88;2.38;;;;;;;9.80;100.00;99683.13;5025187;28;20107;-68
2022/12/22 05:04:27;;;;;;;5.13;2.38;;;;;;;9.84;100.00;99684.78;5028676;28;20120;-69
2022/12/22 05:06:52;;;;;;;4.32;2.35;;;;;;;9.89;100.00;99682.91;5020726;28;20072;-69
2022/12/22 05:09:18;;;;;;;2.88;2.30;;;;;;;9.94;100.00;99669.94;5024627;28;20614;-69
2022/12/22 05:11:43;;;;;;;4.90;2.28;;;;;;;9.97;100.00;99664.69;5024539;28;20045;-68
2022/12/22 05:14:09;;;;;;;4.25;2.05;;;;;;;9.99;100.00;99658.59;5024074;28;20086;-67
2022/12/22 05:16:34;;;;;;;2.22;1.20;;;;;;;10.01;100.00;99655.97;5024848;28;20042;-67
2022/12/22 05:19:00;;;;;;;1.45;0.90;;;;;;;10.01;100.00;99654.25;5017785;28;20048;-67
2022/12/22 05:21:25;;;;;;;1.55;1.02;;;;;;;10.02;100.00;99649.94;5023718;28;20045;-67
2022/12/22 05:23:51;;;;;;;5.38;1.75;;;;;;;10.04;100.00;99646.44;5022748;28;20037;-67
2022/12/22 05:26:18;;;;;;;5.07;1.13;;;;;;;10.04;100.00;99643.00;5020241;28;20041;-67
2022/12/22 05:28:45;;;;;;;2.80;1.20;;;;;;;10.03;100.00;99642.13;5023758;28;20044;-67
2022/12/22 05:31:17;;;;;;;1.00;0.80;;;;;;;10.03;100.00;99646.47;5020550;28;20037;-66
2022/12/22 05:33:43;;;;;;;8.02;1.38;;;;;;;10.02;100.00;99658.53;5027999;28;20441;-66
2022/12/22 05:36:08;;;;;;;3.47;1.88;;;;;;;10.06;100.00;99667.88;5025682;28;20029;-66
2022/12/22 05:38:34;;;;;;;3.40;1.83;;;;;;;10.07;100.00;99684.22;5020967;28;20026;-66
2022/12/22 05:40:59;;;;;;;16.50;8.20;;;;;;;10.06;100.00;99698.88;5025203;28;20048;-66
2022/12/22 05:43:25;;;;;;;7.28;2.20;;;;;;;10.05;100.00;99709.25;5024553;28;20612;-66
2022/12/22 05:45:51;;;;;;;3.53;2.10;;;;;;;10.05;100.00;99691.16;5023726;28;20078;-66
2022/12/22 05:48:17;;;;;;;4.90;2.38;;;;;;;10.04;100.00;99672.25;5020785;28;20042;-66
2022/12/22 05:50:43;;;;;;;4.43;2.72;;;;;;;10.04;100.00;99671.38;5026220;28;20087;-67
2022/12/22 05:53:08;;;;;;;5.63;2.67;;;;;;;10.03;100.00;99692.94;5023996;28;20554;-66
2022/12/22 05:55:34;;;;;;;5.13;2.50;;;;;;;10.01;100.00;99677.47;5020693;28;20426;-67
2022/12/22 05:58:00;;;;;;;3.35;2.45;;;;;;;10.00;100.00;99673.19;5019589;28;20057;-67
2022/12/22 06:00:27;;;;;;;4.68;2.78;;;;;;;10.01;100.00;99682.63;5024118;28;20033;-67
2022/12/22 06:02:52;;;;;;;7.97;2.80;;;;;;;10.03;100.00;99675.69;5024284;28;20524;-67
2022/12/22 06:05:18;;;;;;;3.00;2.10;;;;;;;10.03;100.00;99685.19;5020363;28;20029;-67
2022/12/22 06:07:44;;;;;;;5.43;2.50;;;;;;;10.01;100.00;99695.53;5024153;28;20069;-66
2022/12/22 06:10:11;;;;;;;6.53;3.20;;;;;;;10.03;100.00;99674.88;5024978;28;20043;-67
2022/12/22 06:12:37;;;;;;;7.97;3.78;;;;;;;10.04;100.00;99686.88;5027000;28;20482;-67
2022/12/22 06:15:03;;;;;;;6.00;3.33;;;;;;;10.02;100.00;99681.78;5025269;28;20052;-66
2022/12/22 06:17:28;;;;;;;7.75;3.53;;;;;;;10.05;100.00;99673.09;5027854;28;20033;-67
2022/12/22 06:19:54;;;;;;;5.95;4.03;;;;;;;10.03;100.00;99683.44;5025441;28;20087;-67
2022/12/22 06:22:19;;;;;;;7.03;3.58;;;;;;;10.02;100.00;99689.50;5023841;28;20676;-67
2022/12/22 06:24:45;;;;;;;8.93;4.55;;;;;;;10.04;100.00;99684.28;5026208;28;20495;-67
2022/12/22 06:27:11;;;;;;;4.45;3.80;;;;;;;10.04;100.00;99692.03;5038355;28;20036;-66
2022/12/22 06:29:36;;;;;;;5.32;3.42;;;;;;;10.03;100.00;99685.19;5036026;28;20498;-67
2022/12/22 06:32:02;;;;;;;4.63;4.18;;;;;;;10.03;100.00;99692.94;5038622;28;20045;-67
2022/12/22 06:34:28;;;;;;;9.60;5.78;;;;;;;10.04;100.00;99692.03;5027877;28;20048;-66
2022/12/22 06:36:53;;;;;;;9.45;6.97;;;;;;;10.03;100.00;99705.84;5033580;28;20033;-67
2022/12/22 06:39:19;;;;;;;7.70;4.63;;;;;;;10.02;100.00;99722.22;5025939;28;20046;-66
2022/12/22 06:44:29;;;;;;;5.68;4.30;;;;;;;10.11;100.00;99719.44;5025324;28;20409;-66
2022/12/22 06:46:54;;;;;;;5.45;3.38;;;;;;;10.12;100.00;99721.09;5036853;28;20030;-66
2022/12/22 06:49:20;;;;;;;5.38;3.30;;;;;;;10.16;100.00;99717.56;5028080;28;20038;-67
2022/12/22 06:51:46;;;;;;;2.83;1.50;;;;;;;10.22;100.00;99723.44;5024568;28;20037;-67
2022/12/22 06:54:11;;;;;;;3.65;1.25;;;;;;;10.24;100.00;99733.72;5026284;28;20037;-66
2022/12/22 06:56:37;;;;;;;1.33;0.80;;;;;;;10.27;100.00;99738.81;5026653;28;20059;-66
2022/12/22 06:59:03;;;;;;;2.03;1.20;;;;;;;10.26;100.00;99746.63;5026447;28;20107;-74
2022/12/22 07:01:28;;;;;;;1.63;1.25;;;;;;;10.23;100.00;99751.00;5028104;28;20112;-67
2022/12/22 07:03:54;;;;;;;3.60;1.27;;;;;;;10.24;100.00;99763.00;5028063;28;20283;-66
2022/12/22 07:06:19;;;;;;;4.50;1.48;;;;;;;10.21;100.00;99763.06;5024501;28;20136;-66
2022/12/22 07:08:46;;;;;;;2.85;1.65;;;;;;;10.19;100.00;99770.00;5026160;28;20712;-66
2022/12/22 07:11:12;;;;;;;3.15;1.20;;;;;;;10.16;100.00;99772.66;5026099;28;20505;-66
2022/12/22 07:13:38;;;;;;;3.13;1.20;;;;;;;10.13;100.00;99774.44;5036929;28;20601;-67
2022/12/22 07:16:05;;;;;;;1.65;1.05;;;;;;;10.09;100.00;99785.72;5025491;28;20042;-67
2022/12/22 07:18:33;;;;;;;4.82;1.25;;;;;;;10.07;100.00;99788.34;5027042;28;20064;-67
2022/12/22 07:21:00;;;;;;;2.90;1.40;;;;;;;10.06;100.00;99798.72;5029673;28;20029;-68
2022/12/22 07:23:26;;;;;;;2.67;1.90;;;;;;;10.05;100.00;99797.88;5029225;28;20162;-68
2022/12/22 07:25:52;;;;;;;4.60;2.42;;;;;;;10.05;100.00;99805.63;5025515;28;20453;-67
2022/12/22 07:28:17;;;;;;;3.42;2.30;;;;;;;10.07;100.00;99810.72;5023948;28;20045;-68
2022/12/22 07:30:43;;;;;;;3.78;2.53;;;;;;;10.08;100.00;99812.44;5025562;28;20049;-67
2022/12/22 07:33:08;;;;;;;5.13;2.88;;;;;;;10.09;100.00;99814.13;5023678;28;20399;-67
2022/12/22 07:35:34;;;;;;;5.68;3.00;;;;;;;10.08;100.00;99825.34;5025856;28;20379;-67
2022/12/22 07:38:00;;;;;;;4.57;2.08;;;;;;;10.07;100.00;99824.50;5024973;28;20038;-67
2022/12/22 07:40:26;;;;;;;5.50;2.10;;;;;;;10.08;100.00;99825.34;5023255;28;20038;-68
2022/12/22 07:42:59;;;;;;;4.75;2.45;;;;;;;10.12;100.00;99835.56;5024750;28;20136;-68
2022/12/22 07:45:26;;;;;;;4.65;2.33;;;;;;;10.14;100.00;99840.72;5023640;28;20041;-67
2022/12/22 07:47:51;;;;;;;3.72;1.90;;;;;;;10.13;100.00;99849.34;5023270;28;20095;-68
2022/12/22 07:50:24;;;;;;;7.55;2.65;;;;;;;10.16;100.00;99857.88;5022950;28;20029;-68
2022/12/22 07:52:58;;;;;;;9.57;2.90;;;;;;;10.16;100.00;99857.00;5024327;28;20487;-68
2022/12/22 07:55:25;;;;;;;6.13;2.95;;;;;;;10.17;100.00;99867.34;5024133;28;20049;-68
2022/12/22 07:57:51;;;;;;;6.32;3.75;;;;;;;10.23;100.00;99868.94;5025066;28;20036;-68
2022/12/22 08:00:18;;;;;;;9.05;3.58;;;;;;;10.23;100.00;99866.34;5027795;28;20045;-68
2022/12/22 08:02:51;;;;;;;7.57;3.60;;;;;;;10.24;100.00;99863.72;5033122;28;20037;-68
2022/12/22 08:05:16;;;;;;;5.45;3.60;;;;;;;10.25;100.00;99874.91;5028750;28;20033;-68
2022/12/22 08:07:42;;;;;;;5.63;3.30;;;;;;;10.26;100.00;99886.09;5022768;28;20091;-68
2022/12/22 08:10:08;;;;;;;8.93;3.63;;;;;;;10.28;100.00;99887.75;5018778;28;20041;-68
2022/12/22 08:12:34;;;;;;;6.68;3.22;;;;;;;10.29;100.00;99886.03;5022565;28;20510;-68
2022/12/22 08:14:59;;;;;;;5.82;3.40;;;;;;;10.30;100.00;99891.13;5024342;28;20037;-68
2022/12/22 08:17:26;;;;;;;5.20;3.08;;;;;;;10.30;100.00;99895.47;5026072;28;20060;-68
2022/12/22 08:19:53;;;;;;;6.88;3.20;;;;;;;10.28;100.00;99895.50;5033693;28;20606;-68
2022/12/22 08:22:22;;;;;;;4.40;3.20;;;;;;;10.29;100.00;99893.78;5034950;28;20526;-68
2022/12/22 08:24:48;;;;;;;7.50;3.40;;;;;;;10.29;100.00;99904.09;5022445;28;20537;-68
2022/12/22 08:27:17;;;;;;;5.22;3.47;;;;;;;10.31;100.00;99907.50;5026162;28;20413;-69
2022/12/22 08:29:50;;;;;;;5.07;3.30;;;;;;;10.32;100.00;99920.41;5027935;28;20087;-69
2022/12/22 08:32:15;;;;;;;6.70;3.83;;;;;;;10.35;100.00;99930.66;5020597;28;20037;-69
2022/12/22 08:34:41;;;;;;;5.72;3.92;;;;;;;10.36;100.00;99934.94;5027737;28;20502;-69
2022/12/22 08:37:12;;;;;;;9.00;4.57;;;;;;;10.35;100.00;99943.56;5018863;28;20064;-69
2022/12/22 08:39:41;;;;;;;7.13;4.47;;;;;;;10.34;100.00;99952.19;5024171;28;20063;-70
2022/12/22 08:42:10;;;;;;;6.75;4.60;;;;;;;10.35;100.00;99950.47;5017416;28;20115;-70
2022/12/22 08:44:37;;;;;;;7.70;4.90;;;;;;;10.38;100.00;99956.44;5025431;28;20041;-70
2022/12/22 08:47:03;;;;;;;7.35;5.18;;;;;;;10.41;100.00;99956.38;5025355;28;20033;-70
2022/12/22 08:49:29;;;;;;;8.48;5.32;;;;;;;10.44;100.00;99973.53;5022782;28;20037;-70
2022/12/22 08:51:54;;;;;;;7.40;5.15;;;;;;;10.45;100.00;99977.81;5016762;28;20460;-70
2022/12/22 08:54:20;;;;;;;9.02;5.78;;;;;;;10.47;100.00;99973.47;5016274;28;20544;-70
2022/12/22 08:56:46;;;;;;;10.40;6.22;;;;;;;10.44;100.00;99974.38;5024112;28;20091;-70
2022/12/22 08:59:12;;;;;;;11.82;6.05;;;;;;;10.44;100.00;99982.16;5032705;28;20026;-69
2022/12/22 09:01:41;;;;;;;14.10;7.95;;;;;;;10.47;100.00;99991.56;5023287;28;20033;-69
2022/12/22 09:04:06;;;;;;;15.13;8.10;;;;;;;10.47;100.00;99983.81;5034148;28;20048;-69
2022/12/22 09:06:32;;;;;;;12.93;8.32;;;;;;;10.48;100.00;99994.09;5030799;28;20569;-68
2022/12/22 09:09:00;;;;;;;16.40;9.85;;;;;;;10.50;100.00;100007.00;5029558;28;20525;-69
2022/12/22 09:11:28;;;;;;;16.77;8.70;;;;;;;10.52;100.00;100007.81;5026216;28;20033;-69
2022/12/22 09:13:55;;;;;;;17.05;10.18;;;;;;;10.53;100.00;100022.44;5031326;28;20490;-69
2022/12/22 09:16:23;;;;;;;21.27;9.18;;;;;;;10.53;100.00;100017.28;5029313;28;20164;-69
2022/12/22 09:18:48;;;;;;;21.75;11.20;;;;;;;10.51;100.00;100022.47;5028864;28;20448;-69
2022/12/22 09:21:14;;;;;;;25.02;12.38;;;;;;;10.49;100.00;100034.56;5026694;28;20761;-69
2022/12/22 09:23:40;;;;;;;26.40;12.77;;;;;;;10.49;100.00;100038.88;5020034;28;20042;-67
2022/12/22 09:26:10;;;;;;;30.60;13.35;;;;;;;10.49;100.00;100056.97;5020873;28;20037;-68
2022/12/22 09:28:36;;;;;;;28.40;15.00;;;;;;;10.47;100.00;100067.34;5019554;28;20037;-70
2022/12/22 09:31:03;;;;;;;28.20;14.52;;;;;;;10.50;100.00;100072.44;5030590;28;20061;-68
2022/12/22 09:33:28;;;;;;;30.48;14.55;;;;;;;10.48;100.00;100076.78;5022620;28;20622;-69
2022/12/22 09:35:54;;;;;;;30.00;14.90;;;;;;;10.48;100.00;100092.28;5027624;28;20037;-69
2022/12/22 09:38:19;;;;;;;33.38;14.93;;;;;;;10.48;100.00;100104.34;5026058;28;20040;-69
2022/12/22 09:40:45;;;;;;;31.80;14.90;;;;;;;10.47;100.00;100118.16;5020135;28;20045;-69
2022/12/22 09:43:21;;;;;;;35.63;17.02;;;;;;;10.46;100.00;100129.38;5026558;28;20171;-69
2022/12/22 09:45:46;;;;;;;34.72;16.67;;;;;;;10.46;100.00;100132.81;5029834;28;20115;-69
2022/12/22 09:48:13;;;;;;;29.80;15.57;;;;;;;10.45;100.00;100138.84;5035481;28;20082;-68
2022/12/22 09:50:39;;;;;;;32.65;16.73;;;;;;;10.43;100.00;100143.19;5028790;28;20311;-69
2022/12/22 09:53:12;;;;;;;29.73;16.33;;;;;;;10.45;100.00;100149.19;5023337;28;20026;-68
2022/12/22 09:55:37;;;;;;;31.25;16.73;;;;;;;10.50;100.00;100144.81;5031300;28;20029;-68
2022/12/22 09:58:03;;;;;;;34.08;17.23;;;;;;;10.55;100.00;100148.16;5026467;28;20095;-69
2022/12/22 10:00:28;;;;;;;28.00;15.75;;;;;;;10.56;100.00;100151.59;5030099;28;20038;-68
2022/12/22 10:03:17;;;;;;;27.05;15.43;;;;;;;10.55;100.00;100162.78;5026191;28;20057;-68
2022/12/22 10:05:52;;;;;;;28.65;15.95;;;;;;;10.56;100.00;100169.69;5024881;28;20033;-68
2022/12/22 10:08:26;;;;;;;28.42;14.60;;;;;;;10.57;100.00;100173.94;5034295;28;20040;-69
2022/12/22 10:10:53;;;;;;;28.05;16.02;;;;;;;10.60;100.00;100163.56;5030582;28;20033;-68
2022/12/22 10:13:19;;;;;;;28.98;16.15;;;;;;;10.62;100.00;100157.47;5033459;28;20473;-68
2022/12/22 10:15:45;;;;;;;29.00;15.43;;;;;;;10.67;100.00;100160.00;5028001;28;20030;-68
2022/12/22 10:18:22;;;;;;;25.65;15.32;;;;;;;10.70;100.00;100160.78;5026743;28;20544;-68
2022/12/22 10:21:12;;;;;;;28.38;15.13;;;;;;;10.74;100.00;100167.59;5029025;28;20505;-69
2022/12/22 10:23:45;;;;;;;24.90;14.88;;;;;;;10.72;100.00;100156.44;5027627;28;23188;-69
2022/12/22 10:26:26;;;;;;;25.45;15.13;;;;;;;10.73;100.00;100155.56;5028100;28;20340;-69
2022/12/22 10:28:58;;;;;;;25.27;13.27;;;;;;;10.71;100.00;100166.81;5033096;28;20120;-69
2022/12/22 10:31:27;;;;;;;27.08;13.80;;;;;;;10.68;100.00;100174.63;5026761;28;20116;-69
2022/12/22 10:33:56;;;;;;;23.20;12.90;;;;;;;10.70;100.00;100175.44;5029826;28;20040;-70
2022/12/22 10:36:26;;;;;;;24.98;13.75;;;;;;;10.73;100.00;100180.56;5031021;28;20038;-69
2022/12/22 10:39:02;;;;;;;23.23;13.15;;;;;;;10.74;100.00;100192.59;5031931;28;20566;-71
2022/12/22 10:41:35;;;;;;;24.90;12.55;;;;;;;10.74;100.00;100200.38;5031934;28;20032;-71
2022/12/22 10:44:07;;;;;;;19.88;11.88;;;;;;;10.74;100.00;100203.78;5028436;28;20049;-70
2022/12/22 10:46:35;;;;;;;23.23;12.45;;;;;;;10.77;100.00;100214.06;5032687;28;20037;-69
2022/12/22 10:49:28;;;;;;;23.58;12.95;;;;;;;10.77;100.00;100208.06;5026095;28;20042;-70
2022/12/22 10:52:18;;;;;;;20.95;11.88;;;;;;;10.79;100.00;100208.88;5033322;28;20046;-70
2022/12/22 10:54:44;;;;;;;26.55;13.15;;;;;;;10.83;100.00;100217.44;5028986;28;20059;-70
2022/12/22 10:57:12;;;;;;;20.02;12.48;;;;;;;10.82;99.72;100218.31;5028577;28;20045;-70
2022/12/22 10:59:58;;;;;;;22.35;12.93;;;;;;;10.85;99.38;100232.03;5029529;28;20040;-71
2022/12/22 11:02:25;;;;;;;25.85;13.70;;;;;;;10.89;99.30;100227.66;5016935;28;20056;-71
2022/12/22 11:04:52;;;;;;;21.25;12.23;;;;;;;10.89;98.61;100231.06;5027827;28;20068;-70
2022/12/22 11:07:18;;;;;;;22.08;13.40;;;;;;;10.99;98.29;100242.13;5018481;28;20083;-70
2022/12/22 11:09:44;;;;;;;24.15;12.73;;;;;;;11.02;97.83;100242.06;5030999;28;20760;-70
2022/12/22 11:12:30;;;;;;;23.08;13.48;;;;;;;11.00;98.02;100244.69;5028893;28;20033;-70
2022/12/22 11:15:30;;;;;;;24.25;13.60;;;;;;;10.98;98.31;100241.25;5037029;28;20051;-69
2022/12/22 11:18:01;;;;;;;23.45;12.85;;;;;;;11.05;97.88;100249.75;5026941;28;20061;-70
2022/12/22 11:20:55;;;;;;;24.02;13.63;;;;;;;11.16;97.94;100240.91;5028524;28;20395;-71
2022/12/22 11:23:46;;;;;;;26.23;14.43;;;;;;;11.24;97.47;100248.53;5022816;28;20535;-70
2022/12/22 11:26:40;;;;;;;25.30;12.65;;;;;;;11.24;95.75;100244.22;5025569;28;20040;-70
2022/12/22 11:29:33;;;;;;;21.90;12.05;;;;;;;11.35;96.18;100254.34;5023317;28;20045;-70
2022/12/22 11:32:07;;;;;;;24.35;12.77;;;;;;;11.41;95.73;100262.00;5032452;28;20110;-70
2022/12/22 11:35:17;;;;;;;26.30;13.50;;;;;;;11.46;96.60;100262.78;5036496;28;20033;-71
2022/12/22 11:37:51;;;;;;;22.40;12.90;;;;;;;11.62;96.39;100264.19;5020631;28;20087;-69
2022/12/22 11:40:26;;;;;;;20.70;12.63;;;;;;;11.71;96.16;100257.97;5024514;28;20049;-69
2022/12/22 11:43:20;;;;;;;18.42;10.35;;;;;;;11.67;92.62;100266.66;5025956;28;20057;-69
2022/12/22 11:46:21;;;;;;;15.70;10.07;;;;;;;11.70;93.21;100262.28;5025016;28;20038;-69
2022/12/22 11:49:40;;;;;;;17.15;10.35;;;;;;;11.56;91.77;100279.84;5041178;28;20414;-69
2022/12/22 11:52:23;;;;;;;18.60;9.80;;;;;;;11.44;91.49;100281.81;5027511;28;20427;-71
2022/12/22 11:55:19;;;;;;;17.00;9.95;;;;;;;11.27;91.37;100295.06;5032237;28;20396;-68
2022/12/22 11:57:53;;;;;;;17.35;9.60;;;;;;;11.19;92.04;100300.34;5025171;28;20562;-69
2022/12/22 12:00:19;;;;;;;14.73;8.90;;;;;;;11.09;90.75;100298.84;5024873;28;20108;-69
2022/12/22 12:03:00;;;;;;;16.25;9.18;;;;;;;11.07;90.70;100302.34;5031979;28;20124;-69
2022/12/22 12:05:31;;;;;;;16.10;9.45;;;;;;;11.06;89.14;100309.22;5027918;28;20142;-69
2022/12/22 12:08:11;;;;;;;15.25;9.40;;;;;;;11.06;88.88;100304.06;5028115;28;20050;-74
2022/12/22 12:10:43;;;;;;;15.43;9.57;;;;;;;11.05;89.95;100310.09;5023548;28;20116;-74
2022/12/22 12:13:43;;;;;;;15.85;9.23;;;;;;;11.09;90.10;100311.75;5031334;28;20514;-74
2022/12/22 12:16:47;;;;;;;19.63;11.05;;;;;;;11.19;89.84;100310.69;5032735;28;20038;-74
2022/12/22 12:19:34;;;;;;;18.83;10.55;;;;;;;11.22;90.33;100314.97;5044071;28;20069;-74
2022/12/22 12:22:19;;;;;;;17.95;10.63;;;;;;;11.13;89.80;100315.97;5023682;28;20056;-75
2022/12/22 12:25:20;;;;;;;18.40;10.82;;;;;;;11.03;90.13;100323.94;5026136;28;20052;-75
2022/12/22 12:28:17;;;;;;;15.70;9.40;;;;;;;11.02;89.64;100322.22;5028139;28;20041;-76
2022/12/22 12:30:56;;;;;;;15.50;9.52;;;;;;;11.01;89.26;100329.13;5021995;28;20119;-75
2022/12/22 12:33:27;;;;;;;16.67;9.68;;;;;;;10.98;89.52;100329.19;5026659;28;20113;-75
2022/12/22 12:36:02;;;;;;;14.02;9.18;;;;;;;10.93;88.88;100331.00;5028054;28;20046;-75
2022/12/22 12:38:45;;;;;;;14.68;8.35;;;;;;;10.91;88.99;100327.59;5028715;28;20083;-75
2022/12/22 12:41:17;;;;;;;18.17;9.38;;;;;;;10.88;89.24;100325.06;5021062;28;20604;-75
2022/12/22 12:43:44;;;;;;;15.43;9.18;;;;;;;10.84;89.59;100319.94;5023680;28;20029;-75
2022/12/22 12:46:47;;;;;;;20.27;10.38;;;;;;;10.80;89.81;100316.59;5022627;28;20072;-75
2022/12/22 12:49:34;;;;;;;16.13;9.35;;;;;;;10.76;89.96;100330.44;5022167;28;20066;-74
2022/12/22 12:52:02;;;;;;;13.63;9.40;;;;;;;10.75;88.87;100324.41;5015017;28;20752;-75
2022/12/22 12:54:28;;;;;;;14.13;9.15;;;;;;;10.75;89.44;100320.97;5022153;28;20104;-75
2022/12/22 12:56:54;;;;;;;14.82;9.20;;;;;;;10.73;89.71;100325.31;5027162;28;20105;-75
2022/12/22 12:59:46;;;;;;;16.55;9.88;;;;;;;10.72;89.16;100327.03;5023326;28;20042;-76
2022/12/22 13:02:30;;;;;;;17.67;10.05;;;;;;;10.74;89.40;100332.19;5016541;28;20033;-76
2022/12/22 13:05:14;;;;;;;15.82;9.82;;;;;;;10.70;89.15;100340.88;5022886;28;20048;-68
2022/12/22 13:08:13;;;;;;;15.73;9.32;;;;;;;10.72;89.35;100329.63;5017034;28;20033;-68
2022/12/22 13:10:46;;;;;;;16.77;9.35;;;;;;;10.74;87.31;100327.84;5020396;28;20041;-68
2022/12/22 13:13:35;;;;;;;17.25;9.77;;;;;;;10.76;87.54;100325.25;5022774;28;20056;-69
2022/12/22 13:16:00;;;;;;;20.73;9.90;;;;;;;10.79;87.78;100325.22;5025401;28;20129;-69
2022/12/22 13:18:27;;;;;;;16.60;9.63;;;;;;;10.83;86.61;100332.06;5021088;28;20124;-69
2022/12/22 13:21:12;;;;;;;13.73;8.65;;;;;;;10.86;86.15;100329.38;5033634;28;20029;-69
2022/12/22 13:23:45;;;;;;;14.43;8.82;;;;;;;10.89;85.51;100326.75;5030903;28;20069;-69
2022/12/22 13:26:16;;;;;;;14.98;9.57;;;;;;;10.90;86.05;100318.13;5027769;28;20053;-69
2022/12/22 13:28:47;;;;;;;14.98;8.55;;;;;;;10.85;86.48;100324.25;5027648;28;20045;-70
2022/12/22 13:31:23;;;;;;;15.45;8.57;;;;;;;10.79;86.67;100320.03;5029736;28;20039;-69
2022/12/22 13:34:05;;;;;;;16.90;9.18;;;;;;;10.72;87.39;100326.19;5028354;28;20033;-69
2022/12/22 13:36:32;;;;;;;16.00;8.38;;;;;;;10.63;87.41;100321.16;5028770;28;20120;-69
2022/12/22 13:39:04;;;;;;;14.68;9.15;;;;;;;10.60;87.73;100322.06;5024091;28;20475;-69
2022/12/22 13:41:32;;;;;;;15.68;9.23;;;;;;;10.59;88.44;100330.72;5025069;28;20068;-68
2022/12/22 13:44:05;;;;;;;14.38;8.55;;;;;;;10.67;88.61;100328.00;5014643;28;20487;-68
2022/12/22 13:46:35;;;;;;;14.68;8.75;;;;;;;10.72;88.32;100339.09;5027322;28;20244;-68
2022/12/22 13:49:03;;;;;;;13.20;8.15;;;;;;;10.76;88.11;100333.88;5025788;28;20048;-68
2022/12/22 13:51:35;;;;;;;14.60;8.50;;;;;;;10.74;88.50;100340.78;5022162;28;20462;-68
2022/12/22 13:54:30;;;;;;;12.50;8.68;;;;;;;10.69;88.03;100349.47;5026483;28;20025;-68
2022/12/22 13:56:57;;;;;;;13.45;8.75;;;;;;;10.59;88.93;100348.78;5029933;28;20110;-68
2022/12/22 13:59:39;;;;;;;17.33;8.52;;;;;;;10.50;89.42;100351.53;5026556;28;20025;-68
2022/12/22 14:02:07;;;;;;;15.52;9.40;;;;;;;10.40;89.67;100349.06;5024079;28;20289;-68
2022/12/22 14:04:34;;;;;;;14.15;8.73;;;;;;;10.33;90.22;100348.28;5025449;28;20043;-68
2022/12/22 14:07:10;;;;;;;13.50;8.30;;;;;;;10.23;90.63;100352.75;5026657;28;20373;-68
2022/12/22 14:09:35;;;;;;;14.88;9.20;;;;;;;10.16;90.64;100353.69;5026403;28;20060;-68
2022/12/22 14:12:01;;;;;;;13.85;7.78;;;;;;;10.09;91.79;100346.03;5024964;28;20603;-68
2022/12/22 14:14:38;;;;;;;13.32;8.40;;;;;;;10.04;92.01;100351.28;5027270;28;20064;-68
2022/12/22 14:17:21;;;;;;;13.30;8.27;;;;;;;10.02;92.44;100355.63;5024243;28;20033;-68
2022/12/22 14:19:49;;;;;;;13.55;8.50;;;;;;;10.00;92.21;100349.59;5027770;28;20034;-68
2022/12/22 14:22:19;;;;;;;13.80;8.13;;;;;;;10.03;92.47;100343.56;5026992;28;20110;-68
2022/12/22 14:24:49;;;;;;;13.18;7.70;;;;;;;10.07;92.44;100346.06;5021545;28;20033;-68
2022/12/22 14:27:22;;;;;;;14.60;8.60;;;;;;;10.13;92.85;100346.00;5023572;28;20029;-69
2022/12/22 14:29:49;;;;;;;14.38;8.60;;;;;;;10.18;92.43;100348.50;5024476;28;20044;-68
2022/12/22 14:32:38;;;;;;;16.90;9.23;;;;;;;10.20;92.52;100339.03;5025427;28;20038;-68
2022/12/22 14:35:20;;;;;;;13.88;9.85;;;;;;;10.20;92.16;100342.47;5021590;28;20021;-68
2022/12/22 14:37:47;;;;;;;16.38;8.93;;;;;;;10.21;92.30;100348.47;5021446;28;20502;-68
2022/12/22 14:40:37;;;;;;;16.80;8.48;;;;;;;10.20;92.93;100355.38;5020532;28;20449;-69
2022/12/22 14:43:24;;;;;;;15.63;9.63;;;;;;;10.18;92.63;100340.75;5023818;28;20068;-69
2022/12/22 14:45:59;;;;;;;15.50;9.52;;;;;;;10.14;92.47;100336.53;5027000;28;20045;-69
2022/12/22 14:48:32;;;;;;;11.88;8.38;;;;;;;10.07;92.87;100330.59;5028284;28;20075;-69
2022/12/22 14:50:58;;;;;;;15.73;8.40;;;;;;;9.99;92.97;100332.41;5027721;28;20030;-69
2022/12/22 14:53:29;;;;;;;13.70;8.60;;;;;;;9.89;93.24;100323.06;5026970;28;20510;-69
2022/12/22 14:55:54;;;;;;;13.85;8.80;;;;;;;9.81;94.45;100327.47;5028331;28;20522;-69
2022/12/22 14:58:32;;;;;;;12.50;8.55;;;;;;;9.74;94.54;100315.50;5028156;28;20510;-69
2022/12/22 15:01:19;;;;;;;13.18;7.90;;;;;;;9.71;94.74;100317.28;5028116;28;20042;-69
2022/12/22 15:04:18;;;;;;;14.73;8.05;;;;;;;9.73;94.41;100316.41;5027786;28;20056;-69
2022/12/22 15:06:46;;;;;;;14.23;9.13;;;;;;;9.74;94.74;100317.25;5024321;28;20049;-69
2022/12/22 15:09:12;;;;;;;14.55;8.57;;;;;;;9.76;95.25;100305.19;5028015;28;20075;-69
2022/12/22 15:11:56;;;;;;;17.25;9.43;;;;;;;9.77;94.72;100302.56;5027171;28;20049;-69
2022/12/22 15:14:28;;;;;;;13.10;7.60;;;;;;;9.80;95.13;100301.69;5027252;28;20063;-69